Strona główna
METAR-TAF:

METAR-TAF

Lotnisko :

Port lotniczy Bristol

Bristol, Anglia

Szerokość geograficzna: 51-23N, Długość geograficzna: 002-43W, wysokość: 189 m

Aktualna obserwacja pogody

Raport powstał 36 minut temu, godzina 11:50 UTC
Wiatr 8 kt od zachodnio-północny zachód, zmienny między zachodnio-południowy zachód i północno-północny zachód
Temperatura 11°C
Wilgotność 58%
Ciśnienie 1018 hPa
Widzialność 10 km lub więcej
Rozproszone chmury na wysokości 2900 ft

METAR: EGGD 031150Z AUTO 29008KT 250V330 9999 SCT029 11/03 Q1018

czas: 13:26 (12:26 UTC)

Prognoza

Raport powstał 1 godzina i 15 minut temu, godzina 11:11 UTC
Prognoza ważna od 03 godzina 12 UTC do 04 godzina 12 UTC
Wiatr 6 kt od zachód
Widzialność 10 km lub więcej
Mało chmury na wysokości 1500 ft
Przerywane chmury na wysokości 4000 ft
Prawdopodobieństwo 30% :
Przejściowo
od 04 godzina 03 UTC do 04 godzina 08 UTC
Widzialność: 8000 m
Przerywane chmury na wysokości 300 ft

TAF: EGGD 031111Z 0312/0412 28006KT 9999 FEW015 BKN040 PROB30 TEMPO 0403/0408 8000 BKN003

Obserwacja i prognoza pogody dla ponad 4000 lotnisk (raport METAR i TAF).

Dostępne stacje oznaczono żółtymi i czerwonymi punktami na mapie.

Najedź kursorem aby zobaczyć nazwę stacji.

Kliknij aby zobaczyć obserwacje i prognozy pogody.

Aby zmienić mapę: kliknij na zielony przycisk z czarnym krzyżykiem, aby powiększyć; na zielony przycisk z myślnikiem, aby pomniejszyć; na zielone strzałki, aby przejść do map sąsiednich.


METAR-TAF: